createdAt,value
2023-04-28T00:01:21.266Z,101373.44
2023-04-28T00:03:51.460Z,101372.84
2023-04-28T00:06:19.776Z,101366.56
2023-04-28T00:08:48.281Z,101371.44
2023-04-28T00:11:16.726Z,101376.06
2023-04-28T00:13:45.074Z,101374.44
2023-04-28T00:16:13.636Z,101369.19
2023-04-28T00:18:41.962Z,101364.81
2023-04-28T00:21:10.340Z,101364.81
2023-04-28T00:23:38.845Z,101364.81
2023-04-28T00:26:07.254Z,101365.06
2023-04-28T00:28:35.599Z,101360.16
2023-04-28T00:31:13.019Z,101361.34
2023-04-28T00:33:45.038Z,101362.75
2023-04-28T00:36:15.399Z,101354.53
2023-04-28T00:38:45.704Z,101350.97
2023-04-28T00:41:16.116Z,101345.75
2023-04-28T00:43:51.078Z,101351.47
2023-04-28T00:46:32.418Z,101342.19
2023-04-28T00:49:05.499Z,101337.31
2023-04-28T00:51:35.196Z,101342.53
2023-04-28T00:54:07.782Z,101340.38
2023-04-28T00:56:37.024Z,101340.97
2023-04-28T00:59:06.552Z,101339.03
2023-04-28T01:01:37.208Z,101336.03
2023-04-28T01:04:07.777Z,101329.50
2023-04-28T01:06:39.592Z,101329.25
2023-04-28T01:09:08.471Z,101326.53
2023-04-28T01:11:38.591Z,101326.25
2023-04-28T01:14:07.217Z,101323.53
2023-04-28T01:16:37.949Z,101327.09
2023-04-28T01:19:25.608Z,101323.53
2023-04-28T01:21:55.029Z,101320.53
2023-04-28T01:24:25.221Z,101315.88
2023-04-28T01:26:52.367Z,101311.84
2023-04-28T01:29:22.550Z,101306.38
2023-04-28T01:31:52.813Z,101306.63
2023-04-28T01:34:22.946Z,101314.59
2023-04-28T01:36:53.108Z,101310.75
2023-04-28T01:39:23.400Z,101306.97
2023-04-28T01:41:53.578Z,101307.53
2023-04-28T01:44:23.761Z,101305.63
2023-04-28T01:46:54.232Z,101308.34
2023-04-28T01:49:24.332Z,101306.44
2023-04-28T01:51:54.555Z,101304.53
2023-04-28T01:54:24.649Z,101305.63
2023-04-28T01:56:54.881Z,101302.88
2023-04-28T01:59:25.028Z,101306.69
2023-04-28T02:01:55.511Z,101294.91
2023-04-28T02:04:25.573Z,101293.84
2023-04-28T02:06:55.685Z,101286.72
2023-04-28T02:09:25.914Z,101287.53
2023-04-28T02:11:56.149Z,101296.31
2023-04-28T02:14:27.251Z,101295.56
2023-04-28T02:16:56.594Z,101291.56
2023-04-28T02:19:26.863Z,101300.75
2023-04-28T02:21:56.993Z,101300.84
2023-04-28T02:24:27.121Z,101293.44
2023-04-28T02:26:57.491Z,101282.06
2023-04-28T02:29:27.853Z,101284.28
2023-04-28T02:31:58.212Z,101287.69
2023-04-28T02:34:28.324Z,101282.25
2023-04-28T02:36:58.431Z,101281.81
2023-04-28T02:39:30.202Z,101281.03
2023-04-28T02:42:00.436Z,101280.00
2023-04-28T02:44:30.834Z,101274.28
2023-04-28T02:47:02.068Z,101270.19
2023-04-28T02:49:29.562Z,101263.63
2023-04-28T02:51:57.900Z,101264.47
2023-04-28T02:54:29.219Z,101267.81
2023-04-28T02:56:58.858Z,101262.72
2023-04-28T02:59:27.303Z,101265.25
2023-04-28T03:01:54.505Z,101264.16
2023-04-28T03:04:23.576Z,101267.69
2023-04-28T03:06:51.800Z,101258.25
2023-04-28T03:09:19.718Z,101261.22
2023-04-28T03:11:48.236Z,101260.88
2023-04-28T03:14:16.891Z,101262.34
2023-04-28T03:16:45.414Z,101256.25
2023-04-28T03:19:13.507Z,101255.69
2023-04-28T03:21:41.956Z,101249.34
2023-04-28T03:24:10.619Z,101247.31
2023-04-28T03:26:38.823Z,101250.00
2023-04-28T03:29:07.324Z,101249.34
2023-04-28T03:31:36.025Z,101249.00
2023-04-28T03:34:04.646Z,101240.75
2023-04-28T03:36:33.407Z,101243.16
2023-04-28T03:39:01.084Z,101236.06
2023-04-28T03:41:29.493Z,101239.09
2023-04-28T03:43:57.761Z,101246.72
2023-04-28T03:46:26.353Z,101245.50
2023-04-28T03:48:54.836Z,101246.28
2023-04-28T03:51:23.179Z,101233.34
2023-04-28T03:53:51.408Z,101242.59
2023-04-28T03:56:19.907Z,101234.03
2023-04-28T03:58:48.321Z,101232.25
2023-04-28T04:01:16.780Z,101225.09
2023-04-28T04:03:45.465Z,101238.22
2023-04-28T04:06:14.846Z,101223.06
2023-04-28T04:08:43.842Z,101221.66
2023-04-28T04:11:13.400Z,101222.44
2023-04-28T04:13:42.724Z,101225.69
2023-04-28T04:16:10.640Z,101220.13
2023-04-28T04:18:38.684Z,101219.88
2023-04-28T04:21:07.220Z,101207.31
2023-04-28T04:23:35.785Z,101216.41
2023-04-28T04:26:04.070Z,101214.19
2023-04-28T04:28:32.393Z,101207.56
2023-04-28T04:31:00.918Z,101200.59
2023-04-28T04:33:29.834Z,101203.69
2023-04-28T04:35:58.045Z,101201.38
2023-04-28T04:38:26.180Z,101204.47
2023-04-28T04:40:54.614Z,101202.69
2023-04-28T04:43:23.179Z,101207.84
2023-04-28T04:45:51.447Z,101204.63
2023-04-28T04:48:19.849Z,101203.94
2023-04-28T04:50:48.326Z,101200.66
2023-04-28T04:53:17.196Z,101197.94
2023-04-28T04:55:47.485Z,101198.81
2023-04-28T04:58:18.070Z,101199.97
2023-04-28T05:00:47.805Z,101200.31
2023-04-28T05:03:18.431Z,101204.75
2023-04-28T05:05:48.789Z,101200.69
2023-04-28T05:08:18.433Z,101200.69
2023-04-28T05:10:48.593Z,101193.28
2023-04-28T05:13:18.882Z,101192.50
2023-04-28T05:15:48.937Z,101193.03
2023-04-28T05:18:19.125Z,101195.28
2023-04-28T05:20:49.242Z,101194.44
2023-04-28T05:23:19.091Z,101187.59
2023-04-28T05:25:49.373Z,101180.69
2023-04-28T05:28:22.232Z,101178.19
2023-04-28T05:30:50.266Z,101179.00
2023-04-28T05:33:20.548Z,101172.88
2023-04-28T05:35:50.966Z,101172.53
2023-04-28T05:38:23.325Z,101171.13
2023-04-28T05:40:51.560Z,101165.56
2023-04-28T05:43:21.729Z,101165.25
2023-04-28T05:45:51.963Z,101162.44
2023-04-28T05:48:22.169Z,101157.56
2023-04-28T05:50:52.337Z,101160.75
2023-04-28T05:53:22.440Z,101159.66
2023-04-28T05:55:52.946Z,101151.75
2023-04-28T05:58:22.897Z,101156.03
2023-04-28T06:00:53.864Z,101157.63
2023-04-28T06:03:24.137Z,101155.66
2023-04-28T06:05:54.303Z,101144.03
2023-04-28T06:08:22.715Z,101140.97
2023-04-28T06:10:51.183Z,101142.06
2023-04-28T06:13:19.485Z,101143.34
2023-04-28T06:15:48.051Z,101142.47
2023-04-28T06:18:16.627Z,101144.41
2023-04-28T06:20:44.946Z,101143.63
2023-04-28T06:23:13.358Z,101140.75
2023-04-28T06:25:41.863Z,101130.44
2023-04-28T06:28:10.106Z,101134.84
2023-04-28T06:30:38.599Z,101128.59
2023-04-28T06:33:07.203Z,101131.03
2023-04-28T06:35:38.566Z,101118.88
2023-04-28T06:38:07.872Z,101120.88
2023-04-28T06:40:35.170Z,101130.28
2023-04-28T06:43:04.146Z,101125.81
2023-04-28T06:45:32.155Z,101118.34
2023-04-28T06:48:00.570Z,101129.00
2023-04-28T06:50:29.167Z,101123.91
2023-04-28T06:52:58.923Z,101123.28
2023-04-28T06:55:29.229Z,101114.91
2023-04-28T06:57:59.320Z,101114.69
2023-04-28T07:00:29.481Z,101113.44
2023-04-28T07:02:59.720Z,101101.81
2023-04-28T07:05:30.138Z,101106.69
2023-04-28T07:08:00.204Z,101112.28
2023-04-28T07:10:30.365Z,101100.09
2023-04-28T07:13:00.603Z,101099.13
2023-04-28T07:15:31.642Z,101097.13
2023-04-28T07:18:01.175Z,101093.72
2023-04-28T07:20:31.476Z,101095.16
2023-04-28T07:23:01.526Z,101083.91
2023-04-28T07:25:32.522Z,101080.78
2023-04-28T07:28:05.922Z,101078.97
2023-04-28T07:30:34.670Z,101079.13
2023-04-28T07:33:04.296Z,101068.19
2023-04-28T07:35:34.556Z,101074.22
2023-04-28T07:38:04.762Z,101071.47
2023-04-28T07:40:35.010Z,101066.38
2023-04-28T07:43:05.241Z,101065.56
2023-04-28T07:45:42.097Z,101064.25
2023-04-28T07:48:11.787Z,101057.25
2023-04-28T07:50:42.189Z,101052.31
2023-04-28T07:53:12.129Z,101048.63
2023-04-28T07:55:43.394Z,101053.69
2023-04-28T07:58:13.820Z,101051.44
2023-04-28T08:00:43.195Z,101054.00
2023-04-28T08:03:13.526Z,101061.00
2023-04-28T08:05:45.149Z,101055.28
2023-04-28T08:08:14.814Z,101042.22
2023-04-28T08:10:44.808Z,101047.16
2023-04-28T08:13:16.785Z,101052.63
2023-04-28T08:15:48.679Z,101047.63
2023-04-28T08:18:17.591Z,101043.47
2023-04-28T08:20:47.754Z,101041.28
2023-04-28T08:23:17.865Z,101034.91
2023-04-28T08:25:50.456Z,101035.63
2023-04-28T08:28:19.598Z,101038.50
2023-04-28T08:30:48.001Z,101030.28
2023-04-28T08:33:16.328Z,101023.53
2023-04-28T08:35:44.904Z,101026.81
2023-04-28T08:38:15.365Z,101019.81
2023-04-28T08:40:47.909Z,101020.59
2023-04-28T08:43:15.634Z,101022.78
2023-04-28T08:45:46.072Z,101023.06
2023-04-28T08:48:22.866Z,101014.75
2023-04-28T08:50:55.034Z,101019.94
2023-04-28T08:53:27.023Z,101011.19
2023-04-28T08:55:58.612Z,101000.38
2023-04-28T08:58:28.640Z,100995.72
2023-04-28T09:00:58.035Z,101006.53
2023-04-28T09:03:28.335Z,100993.78
2023-04-28T09:05:58.819Z,100987.06
2023-04-28T09:08:29.048Z,100989.13
2023-04-28T09:11:17.346Z,100983.25
2023-04-28T09:13:47.471Z,100982.97
2023-04-28T09:16:17.915Z,100971.31
2023-04-28T09:18:59.027Z,100975.28
2023-04-28T09:21:29.365Z,100969.56
2023-04-28T09:23:59.483Z,100966.88
2023-04-28T09:26:51.727Z,100978.53
2023-04-28T09:29:23.045Z,100969.84
2023-04-28T09:31:53.808Z,100953.09
2023-04-28T09:34:23.997Z,100964.50
2023-04-28T09:36:54.144Z,100958.69
2023-04-28T09:39:33.582Z,100956.81
2023-04-28T09:42:05.696Z,100949.16
2023-04-28T09:44:36.460Z,100960.38
2023-04-28T09:47:22.532Z,100956.22
2023-04-28T09:50:04.498Z,100957.47
2023-04-28T09:52:35.965Z,100954.28
2023-04-28T09:55:12.222Z,100948.88
2023-04-28T09:57:50.210Z,100951.66
2023-04-28T10:00:22.868Z,100936.00
2023-04-28T10:02:53.930Z,100936.28
2023-04-28T10:05:25.169Z,100937.31
2023-04-28T10:07:56.575Z,100928.78
2023-04-28T10:10:28.479Z,100942.06
2023-04-28T10:12:59.910Z,100927.78
2023-04-28T10:15:32.518Z,100924.53
2023-04-28T10:18:05.724Z,100915.91
2023-04-28T10:20:37.641Z,100915.25
2023-04-28T10:23:59.751Z,100918.00
2023-04-28T10:27:11.424Z,100912.41
2023-04-28T10:29:38.923Z,100898.91
2023-04-28T10:32:23.719Z,100904.09
2023-04-28T10:34:52.889Z,100889.69
2023-04-28T10:38:13.831Z,100897.06
2023-04-28T10:40:52.848Z,100891.34
2023-04-28T10:43:25.829Z,100883.16
2023-04-28T10:46:02.409Z,100886.50
2023-04-28T10:48:33.606Z,100881.47
2023-04-28T10:51:04.047Z,100889.97
2023-04-28T10:53:46.110Z,100881.00
2023-04-28T10:56:25.666Z,100876.25
2023-04-28T10:59:00.204Z,100878.31
2023-04-28T11:01:34.954Z,100862.25
2023-04-28T11:04:18.234Z,100866.69
2023-04-28T11:07:15.229Z,100861.41
2023-04-28T11:09:44.741Z,100860.41
2023-04-28T11:12:17.531Z,100853.84
2023-04-28T11:14:47.720Z,100867.47
2023-04-28T11:17:19.563Z,100857.94
2023-04-28T11:19:51.412Z,100870.78
2023-04-28T11:22:24.107Z,100861.91
2023-04-28T11:25:03.952Z,100860.81
2023-04-28T11:27:34.745Z,100858.53
2023-04-28T11:30:02.461Z,100862.50
2023-04-28T11:32:35.144Z,100852.69
2023-04-28T11:35:09.936Z,100855.50
2023-04-28T11:37:37.778Z,100859.47
2023-04-28T11:40:13.284Z,100848.91
2023-04-28T11:42:49.876Z,100843.31
2023-04-28T11:45:17.897Z,100851.13
2023-04-28T11:47:47.470Z,100839.03
2023-04-28T11:50:17.772Z,100839.75
2023-04-28T11:52:53.686Z,100833.63
2023-04-28T11:55:21.424Z,100837.16
2023-04-28T11:58:28.007Z,100838.59
2023-04-28T12:01:16.594Z,100832.22
2023-04-28T12:03:48.370Z,100830.91
2023-04-28T12:06:19.185Z,100827.13
2023-04-28T12:08:50.600Z,100825.53
2023-04-28T12:11:22.565Z,100821.50
2023-04-28T12:14:07.866Z,100822.63
2023-04-28T12:16:44.006Z,100815.00
2023-04-28T12:19:15.288Z,100816.44
2023-04-28T12:21:45.042Z,100824.31
2023-04-28T12:24:21.785Z,100807.34
2023-04-28T12:26:51.873Z,100810.38
2023-04-28T12:29:38.863Z,100807.13
2023-04-28T12:32:11.905Z,100807.81
2023-04-28T12:34:45.640Z,100808.50
2023-04-28T12:37:14.550Z,100801.81
2023-04-28T12:39:44.720Z,100806.69
2023-04-28T12:42:19.309Z,100796.38
2023-04-28T12:44:47.344Z,100796.19
2023-04-28T12:47:21.320Z,100799.06
2023-04-28T12:49:53.291Z,100789.78
2023-04-28T12:52:23.434Z,100791.59
2023-04-28T12:54:53.241Z,100789.22
2023-04-28T12:57:22.930Z,100779.13
2023-04-28T12:59:53.052Z,100785.97
2023-04-28T13:02:23.881Z,100777.84
2023-04-28T13:04:54.102Z,100774.84
2023-04-28T13:07:24.300Z,100774.06
2023-04-28T13:09:56.457Z,100770.66
2023-04-28T13:12:26.714Z,100769.38
2023-04-28T13:14:56.115Z,100771.22
2023-04-28T13:17:26.719Z,100777.13
2023-04-28T13:19:56.025Z,100767.63
2023-04-28T13:22:26.078Z,100767.63
2023-04-28T13:24:56.357Z,100767.44
2023-04-28T13:27:24.586Z,100756.97
2023-04-28T13:29:52.939Z,100758.78
2023-04-28T13:32:21.144Z,100752.44
2023-04-28T13:34:49.534Z,100750.81
2023-04-28T13:37:18.027Z,100746.13
2023-04-28T13:39:46.454Z,100744.72
2023-04-28T13:42:16.888Z,100747.16
2023-04-28T13:44:49.318Z,100746.13
2023-04-28T13:47:19.415Z,100743.34
2023-04-28T13:49:49.744Z,100746.50
2023-04-28T13:52:19.852Z,100750.28
2023-04-28T13:54:50.117Z,100742.47
2023-04-28T13:57:20.417Z,100741.69
2023-04-28T13:59:50.024Z,100740.00
2023-04-28T14:02:20.019Z,100735.78
2023-04-28T14:04:51.219Z,100736.75
2023-04-28T14:07:22.220Z,100734.69
2023-04-28T14:09:51.672Z,100724.66
2023-04-28T14:12:21.596Z,100729.97
2023-04-28T14:14:51.604Z,100719.16
2023-04-28T14:17:21.612Z,100718.75
2023-04-28T14:19:51.246Z,100715.75
2023-04-28T14:22:21.002Z,100715.66
2023-04-28T14:24:50.842Z,100719.97
2023-04-28T14:27:22.099Z,100713.56
2023-04-28T14:29:51.050Z,100709.16
2023-04-28T14:32:21.497Z,100702.03
2023-04-28T14:34:51.886Z,100706.84
2023-04-28T14:37:21.768Z,100699.53
2023-04-28T14:39:51.797Z,100702.19
2023-04-28T14:42:21.874Z,100704.78
2023-04-28T14:44:52.753Z,100701.78
2023-04-28T14:47:25.195Z,100704.88
2023-04-28T14:49:55.525Z,100706.25
2023-04-28T14:52:29.114Z,100694.09
2023-04-28T14:55:01.856Z,100705.63
2023-04-28T14:57:30.831Z,100704.28
2023-04-28T14:59:59.678Z,100697.25
2023-04-28T15:02:29.656Z,100699.03
2023-04-28T15:05:00.225Z,100688.59
2023-04-28T15:07:31.929Z,100693.59
2023-04-28T15:10:02.237Z,100680.56
2023-04-28T15:12:32.236Z,100677.69
2023-04-28T15:15:02.392Z,100671.53
2023-04-28T15:17:32.609Z,100667.47
2023-04-28T15:20:02.409Z,100668.84
2023-04-28T15:22:32.199Z,100666.41
2023-04-28T15:25:02.160Z,100667.34
2023-04-28T15:27:32.331Z,100675.59
2023-04-28T15:30:02.819Z,100665.00
2023-04-28T15:32:32.914Z,100658.03
2023-04-28T15:35:03.253Z,100667.69
2023-04-28T15:37:47.815Z,100667.19
2023-04-28T15:40:21.492Z,100662.56
2023-04-28T15:42:53.211Z,100655.78
2023-04-28T15:45:23.043Z,100657.78
2023-04-28T15:47:52.552Z,100658.72
2023-04-28T15:50:22.886Z,100652.31
2023-04-28T15:52:52.835Z,100655.13
2023-04-28T15:55:24.181Z,100653.38
2023-04-28T15:57:54.398Z,100650.13
2023-04-28T16:00:24.571Z,100653.25
2023-04-28T16:02:53.980Z,100648.81
2023-04-28T16:05:23.911Z,100640.91
2023-04-28T16:07:55.148Z,100640.22
2023-04-28T16:10:25.452Z,100638.34
2023-04-28T16:12:55.000Z,100634.28
2023-04-28T16:15:25.908Z,100637.66
2023-04-28T16:17:57.005Z,100636.03
2023-04-28T16:20:27.410Z,100635.31
2023-04-28T16:22:57.379Z,100629.16
2023-04-28T16:25:25.955Z,100622.19
2023-04-28T16:27:54.175Z,100619.09
2023-04-28T16:30:23.087Z,100623.63
2023-04-28T16:32:53.024Z,100620.22
2023-04-28T16:35:22.638Z,100628.38
2023-04-28T16:37:50.866Z,100629.09
2023-04-28T16:40:19.353Z,100627.22
2023-04-28T16:42:47.700Z,100621.97
2023-04-28T16:45:16.705Z,100627.94
2023-04-28T16:47:44.807Z,100626.88
2023-04-28T16:50:16.697Z,100630.59
2023-04-28T16:52:46.916Z,100626.97
2023-04-28T16:55:16.798Z,100626.50
2023-04-28T16:57:46.815Z,100620.75
2023-04-28T17:00:17.470Z,100616.69
2023-04-28T17:02:47.347Z,100618.63
2023-04-28T17:05:17.953Z,100612.22
2023-04-28T17:07:47.613Z,100609.22
2023-04-28T17:10:17.498Z,100613.72
2023-04-28T17:12:47.312Z,100619.63
2023-04-28T17:15:18.267Z,100612.00
2023-04-28T17:17:51.240Z,100610.03
2023-04-28T17:20:21.705Z,100609.19
2023-04-28T17:22:50.851Z,100604.97
2023-04-28T17:25:24.182Z,100603.09
2023-04-28T17:27:53.740Z,100604.19
2023-04-28T17:30:26.019Z,100603.81
2023-04-28T17:32:55.510Z,100595.53
2023-04-28T17:35:24.590Z,100600.84
2023-04-28T17:37:55.124Z,100598.50
2023-04-28T17:40:25.492Z,100604.06
2023-04-28T17:42:56.537Z,100605.88
2023-04-28T17:45:26.557Z,100594.75
2023-04-28T17:48:00.308Z,100592.53
2023-04-28T17:50:30.479Z,100589.78
2023-04-28T17:53:00.529Z,100593.91
2023-04-28T17:55:30.477Z,100591.00
2023-04-28T17:57:58.851Z,100592.03
2023-04-28T18:00:27.259Z,100595.50
2023-04-28T18:02:56.182Z,100588.97
2023-04-28T18:05:24.652Z,100595.34
2023-04-28T18:07:52.858Z,100587.25
2023-04-28T18:10:21.102Z,100590.56
2023-04-28T18:12:50.541Z,100585.34
2023-04-28T18:15:21.081Z,100588.78
2023-04-28T18:17:49.517Z,100586.69
2023-04-28T18:20:18.671Z,100588.16
2023-04-28T18:22:46.242Z,100590.66
2023-04-28T18:25:16.916Z,100584.16
2023-04-28T18:27:46.134Z,100584.34
2023-04-28T18:30:14.551Z,100589.75
2023-04-28T18:32:42.593Z,100588.00
2023-04-28T18:35:10.961Z,100584.25
2023-04-28T18:37:38.839Z,100584.91
2023-04-28T18:40:07.407Z,100581.84
2023-04-28T18:42:35.728Z,100579.91
2023-04-28T18:45:05.938Z,100575.03
2023-04-28T18:47:36.402Z,100571.94
2023-04-28T18:50:08.763Z,100577.00
2023-04-28T18:52:38.954Z,100572.63
2023-04-28T18:55:09.926Z,100569.84
2023-04-28T18:57:40.704Z,100567.22
2023-04-28T19:00:11.865Z,100566.41
2023-04-28T19:02:43.130Z,100579.19
2023-04-28T19:05:13.952Z,100584.25
2023-04-28T19:07:44.234Z,100578.53
2023-04-28T19:10:14.410Z,100580.47
2023-04-28T19:12:44.570Z,100583.41
2023-04-28T19:15:15.120Z,100579.34
2023-04-28T19:17:45.535Z,100571.00
2023-04-28T19:20:15.782Z,100578.53
2023-04-28T19:22:47.301Z,100563.47
2023-04-28T19:25:18.446Z,100567.41
2023-04-28T19:27:48.781Z,100575.75
2023-04-28T19:30:18.913Z,100577.03
2023-04-28T19:32:48.470Z,100570.00
2023-04-28T19:35:18.259Z,100581.94
2023-04-28T19:37:46.731Z,100566.63
2023-04-28T19:40:16.871Z,100567.59
2023-04-28T19:42:47.045Z,100564.63
2023-04-28T19:45:17.687Z,100565.38
2023-04-28T19:47:47.789Z,100564.63
2023-04-28T19:50:19.055Z,100567.09
2023-04-28T19:52:49.156Z,100575.59
2023-04-28T19:55:20.741Z,100579.38
2023-04-28T19:57:52.803Z,100573.31
2023-04-28T20:00:24.473Z,100572.84
2023-04-28T20:02:54.960Z,100572.03
2023-04-28T20:05:24.898Z,100568.59
2023-04-28T20:07:56.424Z,100569.91
2023-04-28T20:10:26.293Z,100572.69
2023-04-28T20:12:54.702Z,100564.03
2023-04-28T20:15:23.152Z,100569.91
2023-04-28T20:17:51.618Z,100563.53
2023-04-28T20:20:19.984Z,100565.50
2023-04-28T20:22:50.827Z,100559.16
2023-04-28T20:25:19.870Z,100559.16
2023-04-28T20:27:49.660Z,100558.31
2023-04-28T20:30:19.985Z,100553.91
2023-04-28T20:32:50.333Z,100547.06
2023-04-28T20:35:22.953Z,100539.69
2023-04-28T20:37:50.856Z,100538.53
2023-04-28T20:40:20.793Z,100532.44
2023-04-28T20:42:50.486Z,100534.44
2023-04-28T20:45:20.772Z,100513.69
2023-04-28T20:47:50.629Z,100524.00
2023-04-28T20:50:20.231Z,100520.53
2023-04-28T20:52:50.148Z,100517.75
2023-04-28T20:55:20.572Z,100505.16
2023-04-28T20:57:50.316Z,100517.63
2023-04-28T21:00:20.138Z,100512.22
2023-04-28T21:02:50.244Z,100506.69
2023-04-28T21:05:21.062Z,100507.22
2023-04-28T21:07:51.288Z,100512.28
2023-04-28T21:10:21.120Z,100511.16
2023-04-28T21:12:51.051Z,100505.75
2023-04-28T21:15:20.913Z,100509.34
2023-04-28T21:17:50.766Z,100502.31
2023-04-28T21:20:22.263Z,100501.03
2023-04-28T21:22:51.010Z,100496.63
2023-04-28T21:25:20.735Z,100498.72
2023-04-28T21:27:51.044Z,100498.72
2023-04-28T21:30:22.154Z,100496.16
2023-04-28T21:32:52.334Z,100493.78
2023-04-28T21:35:22.681Z,100496.03
2023-04-28T21:37:52.735Z,100500.00
2023-04-28T21:40:22.873Z,100501.50
2023-04-28T21:42:52.894Z,100499.84
2023-04-28T21:45:22.736Z,100485.50
2023-04-28T21:47:52.752Z,100488.63
2023-04-28T21:50:22.771Z,100480.53
2023-04-28T21:52:52.819Z,100486.28
2023-04-28T21:55:22.617Z,100485.81
2023-04-28T21:57:54.207Z,100484.25
2023-04-28T22:00:24.579Z,100483.72
2023-04-28T22:02:53.363Z,100477.84
2023-04-28T22:05:20.728Z,100478.69
2023-04-28T22:07:48.986Z,100475.56
2023-04-28T22:10:19.056Z,100466.56
2023-04-28T22:12:49.357Z,100462.97
2023-04-28T22:15:19.566Z,100475.91
2023-04-28T22:17:49.419Z,100474.06
2023-04-28T22:20:19.221Z,100465.47
2023-04-28T22:22:49.238Z,100475.09
2023-04-28T22:25:19.031Z,100467.25
2023-04-28T22:27:49.420Z,100473.34
2023-04-28T22:30:18.877Z,100464.53
2023-04-28T22:32:49.066Z,100458.91
2023-04-28T22:35:19.049Z,100458.91
2023-04-28T22:37:49.012Z,100451.59
2023-04-28T22:40:19.302Z,100453.19
2023-04-28T22:42:49.144Z,100448.78
2023-04-28T22:45:19.382Z,100443.53
2023-04-28T22:47:49.150Z,100440.31
2023-04-28T22:50:19.176Z,100443.13
2023-04-28T22:52:49.699Z,100442.97
2023-04-28T22:55:19.965Z,100443.59
2023-04-28T22:57:49.890Z,100437.03
2023-04-28T23:00:19.722Z,100444.91
2023-04-28T23:02:49.889Z,100440.47
2023-04-28T23:05:19.910Z,100434.47
2023-04-28T23:07:49.772Z,100437.09
2023-04-28T23:10:19.729Z,100439.72
2023-04-28T23:12:49.766Z,100435.00
2023-04-28T23:15:19.968Z,100428.16
2023-04-28T23:17:49.873Z,100424.19
2023-04-28T23:20:19.995Z,100429.25
2023-04-28T23:22:50.498Z,100425.00
2023-04-28T23:25:20.505Z,100428.41
2023-04-28T23:27:50.264Z,100426.97
2023-04-28T23:30:20.147Z,100415.72
2023-04-28T23:32:50.027Z,100413.94
2023-04-28T23:35:19.790Z,100405.81
2023-04-28T23:37:49.618Z,100404.47
2023-04-28T23:40:20.103Z,100405.13
2023-04-28T23:42:49.841Z,100391.09
2023-04-28T23:45:19.606Z,100392.53
2023-04-28T23:47:49.799Z,100388.38
2023-04-28T23:50:19.724Z,100391.00
2023-04-28T23:52:49.938Z,100390.81
2023-04-28T23:55:19.677Z,100381.94
2023-04-28T23:57:49.579Z,100383.56
